Paterson, New South Wales

8:45 AM EST on September 03, 2014 (GMT +1000)
Largs | Change Station
CLOSE
Current Station
Personal Weather Station
Location: Largs, NEW SOUTH WALES
Elevation: 33 ft
Nearby Weather Stations

Elev 33 ft 32.70 °S, 151.60 °E | Updated 13 seconds ago

Mostly Cloudy
Mostly Cloudy
56.7 °F
Feels Like 56.7 °F
N
13.6
Wind Variable Wind from SW
Gusts 17.4 mph

Today
High -- | Low -- °F
--% Chance of Precip.
Yesterday
High -- | Low -- °F
Precip. -- in
6:09 AM 5:37 PM
First Quarter, 55% visible
Pressure 29.89 in
Visibility 6.2 miles
Clouds Few 3200 ft
Mostly Cloudy 4200 ft
Dew Point 38 °F
Humidity 49%
Rainfall 0.00 in
Snow Depth Not available.
UV 3.0 out of 12
Pollen Not available.
Air Quality Not available.
Flu Activity Not available.
SPECI YWLM 022230Z 24019G30KT 9999 FEW032 BKN042 13/01 Q1012 FM2230 23025G35KT 9999 -SHRA SCT030 BKN040 FM2230 MOD/SEV TURB BLW 5000FT

More Conditions Fewer Conditions

Pressure 29.89 in
Visibility 6.2 miles
Clouds Few 3200 ft
Mostly Cloudy 4200 ft
Dew Point 38 °F
Humidity 49%
Rainfall 0.00 in
Snow Depth Not available.
UV 3.0 out of 12
Pollen Not available.
Air Quality Not available.
Flu Activity Not available.
SPECI YWLM 022230Z 24019G30KT 9999 FEW032 BKN042 13/01 Q1012 FM2230 23025G35KT 9999 -SHRA SCT030 BKN040 FM2230 MOD/SEV TURB BLW 5000FT

More Conditions Fewer Conditions

10-Day Weather Forecast

Almanac

Astronomy

Sep. 03, 2014 Rise Set
Actual Time 6:09 AM EST 5:37 PM EST
Civil Twilight 5:44 AM EST 6:02 PM EST
Nautical Twilight 5:15 AM EST 6:30 PM EST
Astronomical Twilight 4:47 AM EST 6:59 PM EST
Moon 11:26 AM EST (9/3) 12:38 AM EST (9/3)
Length of Visible Light 12h 17m
Length of Day
11h 28m
Tomorrow will be 1m 55s longer.
First Quarter, 55% of the Moon is Illuminated
Sep 2
First Quarter
Sep 8
Full
Sep 15
Last Quarter
Sep 24
New
Oct 1
First Quarter

Yesterday's Extremes

Country Highs Country Lows

Community

WunderPhotos

Upload Photos

1,749,791 photos uploaded!

Nearby

Snow Depth

Not available.

Earthquake Activity

City Distance Mag. Time & Date
No recent earthquake activity has been reported nearby.
Minimum magnitude displayed is 2.5.

Coastal Water Temperatures

Place Temperature
No Stations Reporting

Nearby Weather Stations